Wilmington, NC

10:20 AM EDT on August 31, 2015 (GMT -0400)
Woodlawn | | Change Station
CLOSE
Current Station
Personal Weather Station
Location: Wilmington, NC
Elevation: 30 ft
Nearby Weather Stations

Elev 30 ft 34.21 °N, 77.94 °W | Updated 18 seconds ago

Rain
Rain Mist
75.4 °F
Feels Like 74 °F
N
0.0
Wind Variable Wind from NNE
Gusts 0.0 mph

Today
High -- | Low -- °F
--% Chance of Precip.
Yesterday
High -- | Low -- °F
Precip. -- in
6:44 AM 7:39 PM
Waning Gibbous, 95% visible
Pressure 30.10 in
Visibility 3.0 miles
Clouds Few 2300 ft
Mostly Cloudy 8000 ft
Overcast 10000 ft
Heat Index 74 °F
Dew Point 74 °F
Humidity 97%
Rainfall 0.20 in
Snow Depth Not available.
UV 1.0 out of 12
Pollen 2.90 out of 12
Air Quality Not available.
Flu Activity Not available.
METAR KILM 311353Z 24004KT 3SM RA BR FEW023 BKN080 OVC100 24/24 A3010 RMK AO2 RAB08 SLP191 P0006 T02440239
Pressure 30.10 in
Visibility 3.0 miles
Clouds Few 2300 ft
Mostly Cloudy 8000 ft
Overcast 10000 ft
Heat Index 74 °F
Dew Point 74 °F
Humidity 97%
Rainfall 0.20 in
Snow Depth Not available.
UV 1.0 out of 12
Pollen 2.90 out of 12
Air Quality Not available.
Flu Activity Not available.
METAR KILM 311353Z 24004KT 3SM RA BR FEW023 BKN080 OVC100 24/24 A3010 RMK AO2 RAB08 SLP191 P0006 T02440239

10-Day Weather Forecast

×

Almanac

Astronomy

Aug. 31, 2015 Rise Set
Actual Time
Civil Twilight
Nautical Twilight
Astronomical Twilight
Moon
Length of Visible Light
Length of Day
Tomorrow will be .
, % of the Moon is Illuminated

Today's Extremes

State Highs State Lows

Community

WunderPhotos

Upload Photos

1,851,248 photos uploaded!

WunderBlogs® & News

Nearby

Air Quality

  Air Quality AQ Index Pollutant
Not available.

Snow Depth

Station Depth Elevation

Earthquake Activity

City Distance Mag. Time & Date
Minimum magnitude displayed is 2.5.

Coastal Water Temperatures

Place Temperature

Stations

Nearby Weather Stations

Station Location Temp. Windchill Dew Point Humidity Wind Precip. Elev Updated Type